Time;durP1;ratioP1;P1;durP2;ratioP2;P2;SDS_P1;SDS_P2;PMS_P1;PMS_P2;Temp;Humidity;BMP_temperature;BMP_pressure;BME280_temperature;BME280_humidity;BME280_pressure;Samples;Min_cycle;Max_cycle;Signal;HPM_P1;HPM_P2
2023/09/12 00:01:32;;;;;;;22.10;11.97;;;16.20;44.10;;;;;;5096494;27;48018;-84
2023/09/12 00:03:58;;;;;;;16.83;11.23;;;16.20;44.20;;;;;;5095416;27;46986;-83
2023/09/12 00:06:24;;;;;;;17.40;10.93;;;16.20;44.10;;;;;;5112579;27;46532;-84
2023/09/12 00:08:51;;;;;;;20.63;11.20;;;16.20;44.20;;;;;;5095563;27;46643;-80
2023/09/12 00:11:17;;;;;;;20.27;11.27;;;16.20;44.50;;;;;;5116222;27;46485;-84
2023/09/12 00:13:43;;;;;;;18.20;12.43;;;16.20;44.60;;;;;;5111328;27;46022;-84
2023/09/12 00:16:11;;;;;;;16.60;12.67;;;16.10;44.50;;;;;;5110432;27;46702;-84
2023/09/12 00:18:38;;;;;;;22.67;12.70;;;16.10;44.40;;;;;;5099090;27;46507;-81
2023/09/12 00:21:03;;;;;;;20.90;12.10;;;16.30;44.40;;;;;;5110094;27;46679;-81
2023/09/12 00:23:29;;;;;;;15.57;11.80;;;16.20;44.50;;;;;;5109837;27;46650;-83
2023/09/12 00:25:56;;;;;;;28.10;11.33;;;16.20;44.40;;;;;;5091805;27;46563;-82
2023/09/12 00:28:22;;;;;;;17.67;12.30;;;16.10;44.70;;;;;;5109840;27;46620;-81
2023/09/12 00:30:48;;;;;;;17.00;11.13;;;16.10;44.90;;;;;;5106240;27;47655;-81
2023/09/12 00:33:13;;;;;;;18.27;11.60;;;16.00;45.00;;;;;;5109453;27;46406;-81
2023/09/12 00:35:39;;;;;;;16.70;11.40;;;16.10;45.30;;;;;;5110950;27;46408;-81
2023/09/12 00:38:06;;;;;;;20.50;12.50;;;15.90;45.40;;;;;;5111096;27;46604;-81
2023/09/12 00:40:32;;;;;;;20.00;13.10;;;15.90;45.40;;;;;;5100058;27;49287;-79
2023/09/12 00:42:58;;;;;;;21.30;14.97;;;16.00;45.40;;;;;;5108688;27;46993;-81
2023/09/12 00:45:24;;;;;;;24.93;15.47;;;15.90;45.40;;;;;;5109523;27;46599;-81
2023/09/12 00:47:51;;;;;;;22.87;14.47;;;16.00;45.60;;;;;;5110785;27;46724;-81
2023/09/12 00:50:20;;;;;;;21.17;14.17;;;16.00;45.60;;;;;;5110667;27;47144;-81
2023/09/12 00:52:47;;;;;;;21.10;15.50;;;16.00;45.60;;;;;;5109460;27;46667;-82
2023/09/12 00:55:13;;;;;;;25.00;14.90;;;16.00;45.90;;;;;;5108314;27;46673;-83
2023/09/12 00:57:39;;;;;;;21.53;13.33;;;16.10;46.10;;;;;;5107052;27;46347;-82
2023/09/12 01:00:10;;;;;;;16.60;11.70;;;16.00;46.30;;;;;;5108326;27;46676;-81
2023/09/12 01:02:37;;;;;;;16.30;11.73;;;16.10;46.50;;;;;;5111567;27;47017;-81
2023/09/12 01:05:04;;;;;;;20.20;11.87;;;16.00;46.60;;;;;;5110560;27;46955;-79
2023/09/12 01:07:30;;;;;;;17.23;11.20;;;15.90;46.60;;;;;;5109640;27;46505;-80
2023/09/12 01:09:55;;;;;;;18.10;10.70;;;15.80;47.00;;;;;;5089644;27;49454;-81
2023/09/12 01:12:21;;;;;;;17.73;11.70;;;15.70;47.20;;;;;;5108319;27;46454;-81
2023/09/12 01:14:47;;;;;;;18.30;12.33;;;15.70;47.20;;;;;;5107930;27;47573;-81
2023/09/12 01:17:12;;;;;;;21.53;10.83;;;15.60;47.20;;;;;;5109635;27;46985;-82
2023/09/12 01:19:38;;;;;;;17.97;12.20;;;15.60;47.20;;;;;;5108584;27;47054;-81
2023/09/12 01:22:16;;;;;;;27.17;12.60;;;15.60;47.30;;;;;;5090827;27;46625;-81
2023/09/12 01:25:04;;;;;;;21.83;13.30;;;15.40;47.40;;;;;;5109720;27;46436;-82
2023/09/12 01:27:42;;;;;;;19.57;13.33;;;15.40;47.40;;;;;;5092392;27;46494;-82
2023/09/12 01:30:10;;;;;;;18.73;12.60;;;15.50;47.40;;;;;;5108108;27;46518;-81
2023/09/12 01:32:37;;;;;;;19.27;12.80;;;15.40;47.20;;;;;;5107427;27;46441;-81
2023/09/12 01:35:03;;;;;;;19.37;12.23;;;15.40;47.20;;;;;;5105059;27;47314;-81
2023/09/12 01:37:30;;;;;;;16.80;12.67;;;15.40;47.30;;;;;;5108753;27;46876;-82
2023/09/12 01:39:56;;;;;;;14.37;11.17;;;15.30;47.40;;;;;;5107807;27;46480;-81
2023/09/12 01:42:22;;;;;;;22.17;13.03;;;15.30;47.30;;;;;;5110626;27;46995;-82
2023/09/12 01:44:53;;;;;;;16.83;11.83;;;15.40;47.30;;;;;;5110940;27;46854;-80
2023/09/12 01:47:20;;;;;;;21.40;13.37;;;15.50;47.30;;;;;;5113020;27;46841;-84
2023/09/12 01:49:51;;;;;;;20.67;12.40;;;15.40;47.00;;;;;;5117565;27;47464;-83
2023/09/12 01:52:17;;;;;;;20.60;13.50;;;15.40;46.90;;;;;;5111377;27;45790;-85
2023/09/12 01:54:44;;;;;;;19.60;12.23;;;15.40;46.80;;;;;;5110049;27;46461;-80
2023/09/12 01:57:10;;;;;;;19.03;13.03;;;15.40;46.90;;;;;;5108708;27;45985;-79
2023/09/12 01:59:36;;;;;;;20.13;14.03;;;15.50;47.10;;;;;;5092509;27;48871;-82
2023/09/12 02:02:02;;;;;;;16.67;12.40;;;15.40;47.00;;;;;;5111055;27;46574;-81
2023/09/12 02:04:30;;;;;;;16.67;11.20;;;15.40;47.20;;;;;;5117030;27;46224;-90
2023/09/12 02:06:55;;;;;;;17.20;10.53;;;15.40;47.30;;;;;;5107782;27;46425;-82
2023/09/12 02:09:21;;;;;;;17.30;12.70;;;15.30;47.40;;;;;;5090455;27;47958;-78
2023/09/12 02:11:48;;;;;;;15.70;10.80;;;15.30;47.40;;;;;;5109721;27;46445;-79
2023/09/12 02:14:14;;;;;;;17.27;12.30;;;15.20;47.50;;;;;;5107476;27;46456;-81
2023/09/12 02:16:39;;;;;;;19.47;11.43;;;15.20;47.50;;;;;;5107436;27;46445;-81
2023/09/12 02:19:06;;;;;;;20.73;13.20;;;15.30;47.70;;;;;;5106724;27;46865;-81
2023/09/12 02:21:32;;;;;;;21.13;12.97;;;15.20;47.50;;;;;;5089130;27;46452;-82
2023/09/12 02:23:57;;;;;;;18.83;13.10;;;15.20;47.50;;;;;;5106868;27;46519;-80
2023/09/12 02:26:23;;;;;;;17.03;11.60;;;15.30;47.70;;;;;;5106100;27;46510;-79
2023/09/12 02:28:48;;;;;;;24.37;13.77;;;15.10;47.60;;;;;;5089098;27;49008;-80
2023/09/12 02:31:14;;;;;;;20.73;12.93;;;15.10;47.70;;;;;;5105337;27;46591;-79
2023/09/12 02:33:40;;;;;;;16.00;12.40;;;15.10;47.70;;;;;;5104482;27;46565;-79
2023/09/12 02:36:06;;;;;;;17.80;12.97;;;15.00;47.70;;;;;;5105920;27;46052;-79
2023/09/12 02:38:32;;;;;;;19.40;12.27;;;15.10;47.90;;;;;;5105840;27;47505;-79
2023/09/12 02:40:58;;;;;;;19.87;13.27;;;15.00;47.80;;;;;;5093573;27;46885;-80
2023/09/12 02:43:23;;;;;;;23.97;13.47;;;15.10;48.30;;;;;;5106132;27;46570;-81
2023/09/12 02:45:49;;;;;;;19.03;13.23;;;15.00;48.30;;;;;;5089955;27;46483;-79
2023/09/12 02:48:14;;;;;;;21.00;13.23;;;15.00;48.30;;;;;;5108451;27;46527;-81
2023/09/12 02:50:40;;;;;;;21.10;13.57;;;15.00;48.30;;;;;;5106706;27;46488;-79
2023/09/12 02:53:06;;;;;;;16.20;13.10;;;15.00;48.40;;;;;;5108148;27;46512;-84
2023/09/12 02:55:32;;;;;;;21.70;14.60;;;15.10;48.60;;;;;;5090317;27;46281;-82
2023/09/12 02:57:58;;;;;;;22.57;13.10;;;15.00;48.50;;;;;;5089655;27;48382;-82
2023/09/12 03:00:23;;;;;;;18.77;14.40;;;15.00;48.50;;;;;;5110955;27;46497;-81
2023/09/12 03:02:49;;;;;;;25.73;14.10;;;15.00;48.70;;;;;;5086954;27;46435;-81
2023/09/12 03:05:14;;;;;;;20.10;12.70;;;15.00;48.80;;;;;;5107193;27;46454;-81
2023/09/12 03:07:40;;;;;;;19.53;12.73;;;15.00;48.80;;;;;;5090603;27;48417;-83
2023/09/12 03:10:06;;;;;;;19.67;13.00;;;15.00;48.80;;;;;;5111446;27;46818;-83
2023/09/12 03:12:32;;;;;;;17.40;12.20;;;15.00;48.80;;;;;;5107110;27;46804;-82
2023/09/12 03:14:57;;;;;;;23.43;12.47;;;15.00;48.80;;;;;;5107901;27;46644;-82
2023/09/12 03:17:23;;;;;;;25.47;12.50;;;15.00;48.80;;;;;;5105562;27;46539;-83
2023/09/12 03:19:48;;;;;;;21.77;13.10;;;15.00;48.80;;;;;;5113706;27;46698;-84
2023/09/12 03:22:14;;;;;;;18.30;12.70;;;15.00;48.80;;;;;;5116245;27;46520;-81
2023/09/12 03:24:40;;;;;;;19.10;12.77;;;14.90;48.80;;;;;;5125686;27;45911;-83
2023/09/12 03:27:06;;;;;;;22.37;12.50;;;14.90;48.90;;;;;;5114269;27;46500;-82
2023/09/12 03:29:32;;;;;;;20.13;12.53;;;14.90;49.10;;;;;;5110929;27;46475;-82
2023/09/12 03:31:57;;;;;;;18.80;13.33;;;14.90;49.20;;;;;;5088781;27;46504;-81
2023/09/12 03:34:23;;;;;;;20.87;14.17;;;14.80;49.20;;;;;;5103771;27;46007;-83
2023/09/12 03:36:48;;;;;;;18.00;12.10;;;14.80;49.20;;;;;;5087477;27;49549;-80
2023/09/12 03:39:14;;;;;;;20.10;13.80;;;14.90;49.30;;;;;;5102563;27;46700;-83
2023/09/12 03:41:40;;;;;;;23.23;13.70;;;14.80;49.30;;;;;;5105200;27;46624;-82
2023/09/12 03:44:06;;;;;;;33.23;13.90;;;14.90;49.40;;;;;;5085533;27;46369;-81
2023/09/12 03:46:31;;;;;;;20.07;13.00;;;14.80;49.40;;;;;;5106844;27;46436;-81
2023/09/12 03:48:57;;;;;;;21.30;13.53;;;14.80;49.40;;;;;;5109262;27;46371;-81
2023/09/12 03:51:23;;;;;;;19.10;12.90;;;14.80;49.60;;;;;;5091902;27;46796;-81
2023/09/12 03:53:49;;;;;;;19.67;13.73;;;14.80;49.60;;;;;;5090321;27;46435;-82
2023/09/12 03:56:15;;;;;;;18.30;13.67;;;14.70;49.70;;;;;;5105069;27;46479;-82
2023/09/12 03:58:41;;;;;;;19.30;13.13;;;14.80;49.90;;;;;;5105694;27;46495;-82
2023/09/12 04:01:07;;;;;;;21.00;15.53;;;14.70;49.90;;;;;;5108213;27;47183;-81
2023/09/12 04:03:33;;;;;;;20.13;14.40;;;14.80;50.00;;;;;;5105912;27;46689;-81
2023/09/12 04:05:58;;;;;;;23.63;16.27;;;14.80;50.10;;;;;;5103992;27;47298;-82
2023/09/12 04:08:24;;;;;;;17.97;13.83;;;14.80;50.30;;;;;;5096751;27;46846;-82
2023/09/12 04:10:49;;;;;;;19.70;13.03;;;14.80;50.30;;;;;;5106945;27;46398;-82
2023/09/12 04:13:15;;;;;;;15.07;11.40;;;14.80;50.50;;;;;;5088683;27;46695;-81
2023/09/12 04:15:40;;;;;;;17.07;11.33;;;14.70;50.70;;;;;;5107081;27;46010;-81
2023/09/12 04:18:06;;;;;;;18.00;11.73;;;14.60;51.10;;;;;;5106982;27;46449;-81
2023/09/12 04:20:32;;;;;;;16.43;11.27;;;14.40;51.20;;;;;;5105856;27;46410;-81
2023/09/12 04:22:57;;;;;;;21.43;11.80;;;14.40;51.30;;;;;;5094758;27;46367;-82
2023/09/12 04:25:23;;;;;;;15.33;10.77;;;14.50;51.60;;;;;;5102942;27;46439;-81
2023/09/12 04:27:48;;;;;;;18.10;11.73;;;14.30;51.40;;;;;;5091915;27;46394;-81
2023/09/12 04:30:14;;;;;;;17.77;10.93;;;14.20;51.50;;;;;;5096296;27;46313;-81
2023/09/12 04:32:39;;;;;;;16.17;11.33;;;14.20;51.70;;;;;;5107863;27;46433;-81
2023/09/12 04:35:06;;;;;;;16.07;12.00;;;14.10;51.70;;;;;;5105997;27;46450;-80
2023/09/12 04:37:31;;;;;;;16.10;12.20;;;14.00;51.80;;;;;;5105139;27;46311;-84
2023/09/12 04:39:57;;;;;;;17.73;11.73;;;14.00;51.70;;;;;;5107410;27;46445;-82
2023/09/12 04:42:22;;;;;;;17.00;11.47;;;14.00;51.60;;;;;;5103929;27;46493;-82
2023/09/12 04:44:48;;;;;;;17.70;12.43;;;14.00;51.50;;;;;;5090368;27;48215;-84
2023/09/12 04:47:14;;;;;;;24.03;11.63;;;14.00;51.30;;;;;;5111058;27;46492;-83
2023/09/12 04:49:40;;;;;;;16.60;11.83;;;14.00;51.10;;;;;;5111503;27;46501;-82
2023/09/12 04:52:06;;;;;;;17.90;11.77;;;14.20;51.30;;;;;;5110114;27;46362;-81
2023/09/12 04:54:32;;;;;;;23.90;12.33;;;14.20;51.10;;;;;;5111904;27;46797;-80
2023/09/12 04:56:58;;;;;;;21.13;12.40;;;14.20;51.10;;;;;;5090108;27;47366;-81
2023/09/12 04:59:23;;;;;;;22.43;13.00;;;14.20;50.90;;;;;;5109009;27;46488;-83
2023/09/12 05:01:50;;;;;;;18.43;12.37;;;14.20;50.60;;;;;;5095665;27;45890;-82
2023/09/12 05:04:16;;;;;;;20.97;12.10;;;14.30;50.60;;;;;;5111792;27;46385;-83
2023/09/12 05:06:41;;;;;;;23.20;12.60;;;14.30;50.30;;;;;;5097051;27;46720;-82
2023/09/12 05:09:08;;;;;;;18.33;12.40;;;14.40;50.30;;;;;;5110115;27;46964;-83
2023/09/12 05:11:34;;;;;;;16.90;12.00;;;14.40;50.20;;;;;;5090026;27;46880;-84
2023/09/12 05:14:03;;;;;;;18.60;11.63;;;14.40;50.20;;;;;;5110981;27;46659;-83
2023/09/12 05:16:29;;;;;;;20.20;11.03;;;14.40;51.30;;;;;;5108109;27;46887;-79
2023/09/12 05:18:54;;;;;;;17.03;11.20;;;14.40;50.20;;;;;;5102778;27;47366;-80
2023/09/12 05:21:20;;;;;;;15.90;11.83;;;14.50;50.20;;;;;;5087595;27;46779;-79
2023/09/12 05:23:46;;;;;;;20.80;12.47;;;14.50;50.00;;;;;;5107104;27;47274;-79
2023/09/12 05:26:11;;;;;;;19.03;12.80;;;14.60;49.60;;;;;;5090027;27;46508;-79
2023/09/12 05:28:37;;;;;;;18.60;12.10;;;14.80;49.10;;;;;;5110131;27;46405;-78
2023/09/12 05:31:02;;;;;;;16.23;10.57;;;15.30;48.80;;;;;;5091495;27;46753;-81
2023/09/12 05:33:28;;;;;;;15.50;9.50;;;15.70;49.50;;;;;;5105914;27;46778;-82
2023/09/12 05:35:53;;;;;;;16.70;10.00;;;16.00;49.90;;;;;;5109669;27;46472;-82
2023/09/12 05:38:19;;;;;;;17.70;9.97;;;16.50;49.90;;;;;;5114473;27;46374;-81
2023/09/12 05:40:44;;;;;;;12.10;9.60;;;16.90;49.30;;;;;;5112857;27;46615;-84
2023/09/12 05:43:10;;;;;;;13.53;8.93;;;17.30;48.70;;;;;;5110922;27;47088;-80
2023/09/12 05:45:36;;;;;;;12.13;8.47;;;17.70;47.60;;;;;;5109584;27;47015;-80
2023/09/12 05:48:03;;;;;;;14.00;8.93;;;18.20;46.10;;;;;;5108122;27;47681;-81
2023/09/12 05:50:28;;;;;;;15.33;9.00;;;18.50;44.40;;;;;;5107972;27;46540;-81
2023/09/12 05:52:54;;;;;;;14.80;9.20;;;18.70;42.70;;;;;;5106399;27;46553;-78
2023/09/12 05:55:19;;;;;;;17.30;8.67;;;18.90;40.50;;;;;;5107496;27;46406;-81
2023/09/12 05:57:47;;;;;;;12.57;9.23;;;19.00;38.50;;;;;;5108031;27;46450;-81
2023/09/12 06:00:15;;;;;;;14.37;9.90;;;18.80;38.30;;;;;;5093399;27;46690;-81
2023/09/12 06:02:42;;;;;;;19.50;10.40;;;18.60;38.10;;;;;;5109506;27;47653;-81
2023/09/12 06:05:08;;;;;;;18.43;10.70;;;18.60;38.40;;;;;;5107664;27;46956;-78
2023/09/12 06:07:34;;;;;;;14.87;9.90;;;18.60;38.90;;;;;;5108364;27;46568;-81
2023/09/12 06:09:59;;;;;;;14.37;10.00;;;18.60;39.60;;;;;;5106285;27;46883;-81
2023/09/12 06:12:25;;;;;;;16.17;10.60;;;19.00;38.60;;;;;;5106758;27;47002;-82
2023/09/12 06:14:53;;;;;;;16.00;10.10;;;19.40;36.20;;;;;;5107756;27;47375;-82
2023/09/12 06:17:18;;;;;;;15.00;9.30;;;19.50;35.90;;;;;;5090523;27;46514;-81
2023/09/12 06:19:44;;;;;;;15.00;10.00;;;19.40;36.30;;;;;;5091520;27;46484;-80
2023/09/12 06:22:09;;;;;;;20.23;10.50;;;19.30;36.40;;;;;;5107137;27;46462;-78
2023/09/12 06:24:35;;;;;;;21.83;11.30;;;19.30;36.50;;;;;;5092440;27;46451;-81
2023/09/12 06:27:00;;;;;;;17.00;11.70;;;19.30;36.60;;;;;;5111867;27;46489;-82
2023/09/12 06:29:26;;;;;;;15.50;10.77;;;19.30;36.70;;;;;;5107777;27;46841;-81
2023/09/12 06:31:51;;;;;;;18.37;11.43;;;19.50;36.70;;;;;;5107314;27;47634;-81
2023/09/12 06:34:17;;;;;;;20.20;10.80;;;19.50;36.50;;;;;;5108428;27;46448;-80
2023/09/12 06:36:44;;;;;;;15.90;11.63;;;19.60;36.80;;;;;;5104846;27;46508;-78
2023/09/12 06:39:10;;;;;;;15.67;11.43;;;19.70;36.70;;;;;;5103832;27;46733;-77
2023/09/12 06:41:36;;;;;;;14.87;11.03;;;19.80;36.60;;;;;;5104847;27;46536;-80
2023/09/12 06:44:04;;;;;;;14.93;10.13;;;19.90;36.60;;;;;;5106238;27;47025;-78
2023/09/12 06:46:29;;;;;;;14.87;10.80;;;20.10;36.40;;;;;;5094123;27;46395;-79
2023/09/12 06:48:56;;;;;;;14.73;10.47;;;20.20;36.10;;;;;;5112504;27;46379;-79
2023/09/12 06:51:25;;;;;;;18.60;10.43;;;20.30;35.90;;;;;;5109566;27;47369;-77
2023/09/12 06:53:51;;;;;;;13.20;10.00;;;20.50;35.60;;;;;;5110558;27;46786;-79
2023/09/12 06:56:17;;;;;;;15.67;10.33;;;20.60;35.30;;;;;;5095362;27;46642;-77
2023/09/12 06:58:42;;;;;;;14.43;10.00;;;20.90;35.00;;;;;;5096513;27;46485;-80
2023/09/12 07:01:08;;;;;;;14.13;9.17;;;21.00;35.00;;;;;;5112136;27;46467;-81
2023/09/12 07:03:35;;;;;;;14.53;10.43;;;21.20;35.10;;;;;;5107659;27;46604;-79
2023/09/12 07:06:01;;;;;;;17.47;9.30;;;21.30;35.30;;;;;;5106466;27;46631;-80
2023/09/12 07:08:29;;;;;;;18.80;10.73;;;21.50;34.60;;;;;;5091197;27;46434;-80
2023/09/12 07:10:56;;;;;;;11.50;9.40;;;21.60;34.30;;;;;;5107852;27;47225;-79
2023/09/12 07:13:25;;;;;;;18.30;9.90;;;21.70;34.10;;;;;;5092141;27;46533;-79
2023/09/12 07:15:51;;;;;;;14.50;11.00;;;21.80;33.80;;;;;;5091280;27;46480;-80
2023/09/12 07:18:18;;;;;;;22.47;11.50;;;21.90;33.70;;;;;;5107822;27;46854;-81
2023/09/12 07:20:43;;;;;;;13.60;9.83;;;22.10;33.60;;;;;;5106760;27;47077;-81
2023/09/12 07:23:09;;;;;;;15.20;10.33;;;22.20;33.30;;;;;;5106052;27;46477;-80
2023/09/12 07:25:40;;;;;;;17.53;10.63;;;22.40;32.90;;;;;;5094205;27;46430;-83
2023/09/12 07:28:06;;;;;;;12.50;9.40;;;22.60;32.50;;;;;;5106634;27;46991;-78
2023/09/12 07:30:32;;;;;;;19.10;10.87;;;22.80;32.10;;;;;;5105380;27;46334;-81
2023/09/12 07:32:57;;;;;;;14.97;9.50;;;22.80;31.80;;;;;;5105283;27;46963;-80
2023/09/12 07:35:23;;;;;;;23.30;10.23;;;23.00;31.90;;;;;;5108176;27;46461;-79
2023/09/12 07:37:50;;;;;;;15.70;10.80;;;23.10;31.50;;;;;;5110385;27;46501;-82
2023/09/12 07:40:15;;;;;;;16.60;9.40;;;23.20;31.00;;;;;;5107878;27;46497;-81
2023/09/12 07:42:41;;;;;;;14.07;10.10;;;23.40;30.40;;;;;;5107629;27;46418;-80
2023/09/12 07:45:07;;;;;;;13.30;10.00;;;23.60;30.00;;;;;;5106522;27;46911;-81
2023/09/12 07:47:33;;;;;;;13.17;9.60;;;23.70;29.70;;;;;;5106762;27;46492;-80
2023/09/12 07:50:00;;;;;;;14.70;9.37;;;23.80;29.40;;;;;;5108822;27;46484;-78
2023/09/12 07:52:26;;;;;;;14.33;9.70;;;24.00;29.10;;;;;;5105130;27;46468;-79
2023/09/12 07:54:56;;;;;;;15.03;9.00;;;24.10;28.80;;;;;;5106524;27;46751;-80
2023/09/12 07:57:22;;;;;;;20.00;10.17;;;24.20;28.40;;;;;;5091439;27;46474;-82
2023/09/12 07:59:48;;;;;;;16.90;9.50;;;24.30;28.00;;;;;;5105761;27;46881;-79
2023/09/12 08:02:14;;;;;;;12.93;9.20;;;24.40;28.00;;;;;;5105923;27;46574;-80
2023/09/12 08:04:39;;;;;;;17.50;9.87;;;24.60;27.80;;;;;;5105417;27;46609;-78
2023/09/12 08:07:05;;;;;;;15.60;9.13;;;24.70;27.30;;;;;;5110126;27;46398;-83
2023/09/12 08:09:57;;;;;;;14.90;8.93;;;24.80;26.80;;;;;;5105955;27;46484;-84
2023/09/12 08:12:28;;;;;;;12.07;8.87;;;25.00;26.00;;;;;;5102485;27;46545;-84
2023/09/12 08:14:54;;;;;;;17.83;9.30;;;25.20;26.10;;;;;;5108111;27;46768;-85
2023/09/12 08:17:20;;;;;;;13.43;9.13;;;25.40;25.00;;;;;;5108042;27;46857;-83
2023/09/12 08:19:46;;;;;;;13.50;8.57;;;25.50;24.60;;;;;;5093204;27;48413;-84
2023/09/12 08:22:13;;;;;;;19.73;8.20;;;25.50;24.30;;;;;;5114462;27;46426;-85
2023/09/12 08:24:41;;;;;;;11.17;7.70;;;25.50;23.70;;;;;;5098193;27;46477;-82
2023/09/12 08:27:09;;;;;;;10.80;7.30;;;25.70;23.00;;;;;;5114461;27;46663;-83
2023/09/12 08:29:34;;;;;;;11.40;7.73;;;25.80;22.30;;;;;;5112728;27;46449;-79
2023/09/12 08:32:01;;;;;;;15.57;8.73;;;25.80;21.90;;;;;;5110888;27;46487;-82
2023/09/12 08:34:26;;;;;;;14.07;7.40;;;25.90;21.50;;;;;;5109642;27;46464;-82
2023/09/12 08:36:52;;;;;;;11.67;6.77;;;26.00;20.80;;;;;;5112562;27;46565;-82
2023/09/12 08:39:26;;;;;;;9.73;6.90;;;26.10;20.30;;;;;;5091177;27;48778;-81
2023/09/12 08:41:52;;;;;;;13.97;8.27;;;26.30;19.40;;;;;;5110570;27;46437;-81
2023/09/12 08:44:19;;;;;;;9.90;7.80;;;26.40;18.90;;;;;;5111152;27;46565;-83
2023/09/12 08:46:45;;;;;;;15.33;7.83;;;26.40;18.50;;;;;;5109087;27;46346;-80
2023/09/12 08:49:11;;;;;;;13.03;8.50;;;26.40;18.30;;;;;;5110724;27;46790;-83
2023/09/12 08:51:39;;;;;;;10.70;8.60;;;26.60;18.20;;;;;;5086851;27;46548;-81
2023/09/12 08:54:05;;;;;;;12.17;7.73;;;26.80;17.90;;;;;;5110196;27;46487;-84
2023/09/12 08:56:36;;;;;;;14.90;7.50;;;26.80;17.90;;;;;;5095090;27;46444;-81
2023/09/12 08:59:03;;;;;;;14.73;7.27;;;26.80;17.60;;;;;;5105492;27;46403;-82
2023/09/12 09:01:31;;;;;;;15.27;7.70;;;26.90;18.20;;;;;;5107898;27;46766;-87
2023/09/12 09:03:57;;;;;;;10.40;7.40;;;27.10;17.00;;;;;;5093571;27;47437;-80
2023/09/12 09:06:23;;;;;;;9.70;6.87;;;27.20;16.60;;;;;;5107082;27;46756;-79
2023/09/12 09:08:50;;;;;;;14.10;7.43;;;27.40;16.10;;;;;;5108205;27;47277;-81
2023/09/12 09:11:16;;;;;;;11.47;8.60;;;27.50;16.20;;;;;;5110031;27;46483;-80
2023/09/12 09:13:42;;;;;;;10.70;7.37;;;27.50;16.20;;;;;;5088845;27;46659;-80
2023/09/12 09:16:16;;;;;;;10.03;7.00;;;27.60;16.40;;;;;;5106539;27;46734;-81
2023/09/12 09:18:58;;;;;;;10.27;7.07;;;27.60;15.30;;;;;;5080912;27;48138;-82
2023/09/12 09:21:26;;;;;;;10.50;7.20;;;27.70;14.70;;;;;;5088780;27;46152;-84
2023/09/12 09:23:56;;;;;;;15.90;7.37;;;27.90;14.90;;;;;;5101558;27;46428;-80
2023/09/12 09:26:21;;;;;;;10.80;7.10;;;28.00;14.20;;;;;;5089454;27;45830;-82
2023/09/12 09:29:22;;;;;;;9.20;7.03;;;28.00;14.20;;;;;;5106040;27;46507;-82
2023/09/12 09:31:51;;;;;;;22.47;7.90;;;28.00;13.80;;;;;;5015089;28;47292;-83
2023/09/12 09:34:21;;;;;;;16.07;7.10;;;27.90;14.20;;;;;;5095212;27;46403;-82
2023/09/12 09:36:52;;;;;;;17.43;7.27;;;27.70;14.20;;;;;;5112280;27;46671;-80
2023/09/12 09:39:23;;;;;;;9.30;7.00;;;27.70;14.10;;;;;;5093766;27;48424;-77
2023/09/12 09:41:49;;;;;;;10.10;6.80;;;27.90;13.80;;;;;;5107425;27;46412;-79
2023/09/12 09:44:16;;;;;;;17.53;7.70;;;28.00;13.50;;;;;;5106095;27;46445;-80
2023/09/12 09:46:45;;;;;;;8.87;6.40;;;27.90;13.10;;;;;;5103706;27;46478;-80
2023/09/12 09:49:14;;;;;;;9.70;7.23;;;28.00;13.10;;;;;;5110987;27;46827;-81
2023/09/12 09:51:43;;;;;;;13.13;7.40;;;28.00;12.90;;;;;;5092735;27;46526;-84
2023/09/12 09:54:10;;;;;;;14.07;6.87;;;28.10;12.60;;;;;;5109618;27;46501;-83
2023/09/12 09:56:49;;;;;;;9.07;6.40;;;28.10;12.40;;;;;;5093803;27;46494;-84
2023/09/12 09:59:20;;;;;;;16.60;6.30;;;28.30;11.90;;;;;;5116349;27;46485;-87
2023/09/12 10:01:47;;;;;;;9.57;7.60;;;28.50;11.70;;;;;;5098176;27;46387;-84
2023/09/12 10:04:15;;;;;;;10.10;6.80;;;28.60;11.50;;;;;;5117316;27;46444;-86
2023/09/12 10:06:43;;;;;;;9.10;6.27;;;28.70;10.90;;;;;;5108045;27;46231;-85
2023/09/12 10:09:11;;;;;;;11.40;6.40;;;28.70;10.50;;;;;;5110122;27;46487;-85
2023/09/12 10:11:39;;;;;;;10.33;6.20;;;28.90;10.40;;;;;;5095314;27;46433;-83
2023/09/12 10:14:06;;;;;;;9.03;6.50;;;29.00;10.00;;;;;;5110463;27;46904;-83
2023/09/12 10:16:33;;;;;;;10.00;7.07;;;29.00;9.60;;;;;;5110110;27;46575;-81
2023/09/12 10:19:17;;;;;;;9.93;5.63;;;29.10;9.50;;;;;;5112052;27;47601;-84
2023/09/12 10:21:48;;;;;;;8.63;6.43;;;29.10;9.30;;;;;;5109596;27;46461;-84
2023/09/12 10:24:15;;;;;;;18.07;7.17;;;29.10;10.10;;;;;;5108585;27;46462;-79
2023/09/12 10:26:44;;;;;;;9.67;5.93;;;29.10;8.90;;;;;;5089852;27;45947;-82
2023/09/12 10:29:15;;;;;;;12.03;6.83;;;29.10;8.80;;;;;;5105097;27;46568;-80
2023/09/12 10:31:41;;;;;;;10.33;6.90;;;29.00;9.20;;;;;;5108649;27;46529;-82
2023/09/12 10:34:09;;;;;;;10.53;5.90;;;29.10;8.90;;;;;;5106477;27;46980;-82
2023/09/12 10:36:38;;;;;;;8.63;6.80;;;29.20;8.60;;;;;;5106233;27;46166;-84
2023/09/12 10:39:05;;;;;;;9.37;6.53;;;29.20;8.40;;;;;;5096649;27;48084;-83
2023/09/12 10:41:31;;;;;;;10.23;6.70;;;29.20;8.20;;;;;;5091861;27;46560;-81
2023/09/12 10:43:59;;;;;;;9.43;6.27;;;29.20;8.10;;;;;;5108128;27;46406;-82
2023/09/12 10:46:24;;;;;;;10.17;6.20;;;29.20;8.00;;;;;;5107128;27;46371;-87
2023/09/12 10:48:51;;;;;;;15.23;6.10;;;29.30;7.90;;;;;;5108445;27;46542;-85
2023/09/12 10:51:18;;;;;;;8.60;6.70;;;29.40;7.60;;;;;;5114502;27;46446;-84
2023/09/12 10:53:50;;;;;;;8.40;5.90;;;29.50;7.10;;;;;;5108420;27;46679;-82
2023/09/12 10:56:20;;;;;;;12.00;7.57;;;29.60;6.90;;;;;;5108546;27;46438;-82
2023/09/12 10:59:04;;;;;;;10.83;5.40;;;29.60;7.00;;;;;;5106920;27;46600;-82
2023/09/12 11:01:30;;;;;;;8.57;6.07;;;29.60;7.50;;;;;;5096504;27;46470;-83
2023/09/12 11:03:56;;;;;;;8.03;5.80;;;29.80;6.00;;;;;;5091388;27;46569;-83
2023/09/12 11:06:32;;;;;;;9.43;6.03;;;29.70;6.00;;;;;;5091119;27;46932;-82
2023/09/12 11:09:18;;;;;;;12.60;6.93;;;29.60;6.40;;;;;;5106793;27;46540;-83
2023/09/12 11:11:48;;;;;;;11.50;6.33;;;29.60;5.90;;;;;;5108387;27;46514;-80
2023/09/12 11:14:17;;;;;;;10.37;6.50;;;29.70;6.10;;;;;;5090440;27;46510;-82
2023/09/12 11:17:03;;;;;;;12.70;5.77;;;29.80;6.00;;;;;;5090064;27;46532;-82
2023/09/12 11:19:28;;;;;;;14.20;6.40;;;29.80;5.00;;;;;;5106141;27;47400;-85
2023/09/12 11:21:55;;;;;;;8.07;6.07;;;29.90;4.90;;;;;;5091473;27;46970;-84
2023/09/12 11:24:21;;;;;;;11.60;6.73;;;30.00;4.50;;;;;;5107324;27;46505;-87
2023/09/12 11:27:01;;;;;;;10.40;5.50;;;30.10;4.20;;;;;;5103665;27;46880;-85
2023/09/12 11:29:37;;;;;;;8.20;5.13;;;30.10;3.50;;;;;;5110903;27;46576;-85
2023/09/12 11:32:04;;;;;;;7.60;5.33;;;29.80;3.30;;;;;;5092458;27;46101;-85
2023/09/12 11:34:42;;;;;;;8.40;5.27;;;29.60;3.90;;;;;;5105261;27;46516;-85
2023/09/12 11:37:09;;;;;;;7.33;6.00;;;29.50;3.80;;;;;;5090092;27;47012;-83
2023/09/12 11:39:36;;;;;;;10.83;6.70;;;29.30;4.20;;;;;;5107584;27;47065;-83
2023/09/12 11:42:03;;;;;;;9.23;6.53;;;29.30;3.80;;;;;;5092238;27;46697;-81
2023/09/12 11:44:33;;;;;;;8.77;5.87;;;29.60;3.50;;;;;;5106306;27;45952;-86
2023/09/12 11:47:09;;;;;;;6.63;5.40;;;29.70;2.80;;;;;;5086677;27;46689;-84
2023/09/12 11:49:41;;;;;;;9.20;6.20;;;29.70;2.40;;;;;;5103496;27;46504;-85
2023/09/12 11:52:12;;;;;;;12.63;5.83;;;29.80;2.30;;;;;;5088892;27;46991;-85
2023/09/12 11:54:39;;;;;;;6.47;5.30;;;29.90;1.60;;;;;;5106129;27;46202;-86
2023/09/12 11:57:07;;;;;;;10.13;5.63;;;30.10;1.60;;;;;;5093149;27;45942;-81
2023/09/12 11:59:36;;;;;;;9.13;6.70;;;30.20;1.00;;;;;;5108879;27;47384;-85
2023/09/12 12:02:09;;;;;;;9.50;5.23;;;30.10;1.00;;;;;;5096274;27;47177;-83
2023/09/12 12:04:36;;;;;;;9.20;5.53;;;30.20;1.00;;;;;;5111950;27;46525;-85
2023/09/12 12:07:04;;;;;;;10.33;6.27;;;30.30;1.00;;;;;;5108504;27;46639;-82
2023/09/12 12:09:29;;;;;;;8.60;5.77;;;30.40;1.00;;;;;;5093004;27;48221;-78
2023/09/12 12:11:59;;;;;;;7.53;6.07;;;30.50;1.00;;;;;;5111794;27;46552;-81
2023/09/12 12:14:25;;;;;;;11.70;5.50;;;30.40;1.00;;;;;;5108611;27;46524;-79
2023/09/12 12:16:52;;;;;;;9.60;4.70;;;30.40;1.00;;;;;;5109433;27;46518;-80
2023/09/12 12:19:18;;;;;;;6.57;5.00;;;30.50;1.00;;;;;;5108948;27;46516;-80
2023/09/12 12:21:44;;;;;;;9.27;5.10;;;30.40;1.00;;;;;;5091919;27;46890;-78
2023/09/12 12:24:14;;;;;;;9.00;5.57;;;30.40;1.00;;;;;;5111821;27;46533;-82
2023/09/12 12:26:44;;;;;;;9.70;5.80;;;30.40;1.00;;;;;;5109919;27;46790;-82
2023/09/12 12:29:10;;;;;;;14.70;5.77;;;30.40;1.00;;;;;;5091509;27;47495;-83
2023/09/12 12:31:37;;;;;;;10.03;5.67;;;30.40;1.00;;;;;;5111053;27;46515;-83
2023/09/12 12:34:04;;;;;;;7.63;4.50;;;30.40;1.00;;;;;;5111693;27;46421;-82
2023/09/12 12:36:30;;;;;;;7.93;5.33;;;30.20;1.00;;;;;;5102090;27;47005;-81